EA1GCM
43.16.99N 005.48.29W
IN73CG aprs.fi
zuletzt gehoert:
2022-12-05T19:07:58Z
zuerst gehoert:
2020-02-17T17:13:07Z

APRS IN73CG, 2 Stunde(n), EA1GCM [20:08:49, 0s].
EA1GCM 43.16.99N 005.48.29WIN73CG 0.768km 348°NNW19:07:58Z{UIV23}
EA1IMW 43.14.36N 005.46.93WIN73CF 4.467km 158°SSE18:56:13ZGRUPO RADIO GALENA (GRG) 430.4500/430.4500 CC1(3EA1IMW-1)
EA1HWX 43.19.29N 005.50.96WIN73BH 6.259km 323°NW18:56:37ZDMO - UHF 439.7250/431.0000 CC11(3EA1HWX-2)
EA1JBL 43.12.28N 005.47.42WIN73CE 8.038km 173°S18:54:53ZMMDVM DVMega 435.3000/435.3000 CC1
EA1L 43.20.38N 005.51.13WIN73BI 8.091km 330°NNW19:00:04ZWind 017°/000kn, Böen bis 000kn, Temp 10.00c, Regen 0.0mm, letzte 24h 0.0mm, seit 0h 0.0mm, Baro 1009.4h, Hum: 79%(3EA1L-13)
ea1l@ure.es V=13.2V(2EA1L)
EB1DGC 43.12.60N 005.45.59WIN73CF 8.176km 155°SSE18:54:46ZMMDVM MMDVM HS Hat 433.4500/433.4500 CC1
EA1HWA 43.12.00N 005.47.40WIN73CE 8.576km 173°S18:55:05ZMMDVM MMDVM HS Hat 433.4500/433.4500 CC1
EB1FE 43.19.20N 005.54.00WIN73BH 9.222km 302°WNW18:56:03ZMMDVM MMDVM HS Hat 430.4000/430.4000 CC1(3EB1FE-1)
33D00 43.21.63N 005.51.13WIN73BI 10.147km 337°NNW19:01:41Z33-D-00 Protección Civil REMER / Delegación del Gobierno en Asturias
EA1JBU 43.21.85N 005.51.13WIN73BI 10.528km 338°NNW19:00:06ZEA1JBU(3EA1JBU-1)
LEHU 43.22.63N 005.49.57WIN73CJ 11.344km 350°N19:00:03ZHelipuerto del HUCA: LEAS 051800Z VRB02KT CAVOK 11/08 Q1011 NOSIG=
EA1RCG 43.09.45N 005.49.78WIN73CD 13.398km 189°S18:56:04ZGRUPO RADIO GALENA (GRG) 430.4500/430.4500 CC1(3EA1RCG-3)
ED1ZAU 43.23.04N 005.52.75WIN73BJ 13.449km 333°NNW18:54:09ZRD625 438.5000/430.9000 CC1
EA1ABW 43.24.77N 005.47.77WIN73CJ 15.178km N18:55:46ZMMDVM MMDVM HS Hat 439.8250/439.8250 CC1(3EA1ABW-2)
LEMR 43.25.83N 005.49.60WIN73CK 17.223km 354°N19:00:04ZAerodromo de la Morgal (123.500MHz): LEAS 051800Z VRB02KT CAVOK 11/08 Q1011 NOSIG=
LEGM 43.26.15N 005.49.84WIN73CK 17.867km 353°N19:00:03ZHelipuerto de La Morgal (123.500MHz): LEAS 051800Z VRB02KT CAVOK 11/08 Q1011 NOSIG=
EA1IPU 43.26.21N 005.46.62WIN73CK 17.959km N18:56:12ZMMDVM MMDVM HS Hat 439.8000/439.8000 CC1(3EA1IPU-1)
EA1FLQ 43.22.00N 005.36.35WIN73EI 18.814km 58°ENE18:54:51ZMMDVM DVMega 430.9750/430.9750 CC1
ED1ZAD 43.07.90N 005.38.52WIN73ED 20.702km 141°SE19:00:12ZED1ZAD-3 APRS Digi/Igate(3ED1ZAD-3)
ED1ZAS 43.27.52N 005.40.17WIN73DL 22.947km 28°NNE18:54:09ZRD985 438.2250/430.6250 CC1
ED1ZAE 43.27.99N 005.40.54WIN73DL 23.481km 26°NNE18:58:25Z400 M. PICO SAN MARTIN (GIJON) 13.3V,12.8C(3ED1ZAE-3)
ED1ZAY 43.29.47N 005.56.54WIN73AL 26.407km 335°NNW18:54:13ZRD625 438.3000/430.7000 CC1
EA4ACU 43.29.56N 005.38.92WIN73EL 27.075km 27°NNE18:57:04ZMMDVM MMDVM HS Hat 432.7000/432.7000 CC1(3EA4ACU-1)
EA1FFA 43.31.53N 005.40.64WIN73DM 29.493km 20°NNE18:56:33ZMMDVM MMDVM HS Hat 438.8000/438.8000 CC1(3EA1FFA-1)
EA1DZR 43.31.48N 005.40.00WIN73DM 29.692km 22°NNE18:56:11ZMMDVM DVMega 431.1000/431.1000 CC1(3EA1DZR-1)
MMDVM MMDVM HS Hat 432.2000/432.2000 CC2(2EA1DZR-2)
MMDVM DV ADER 434.3500/434.3500 CC1(2EA1DZR-4)
EB1GEM 43.30.00N 005.36.07WIN73EM 29.726km 33°NNE18:57:56ZWX3in1Plus2.0 U=13.3V,T=??.?C/??.?F(3EB1GEM-3)
EB1TK 43.32.22N 005.42.32WIN73DM 30.025km 15°NNE19:05:17ZWind 087°/002kn, Böen bis 004kn, Temp 13.33c, Regen 0.0mm, letzte 24h 0.0mm, seit 0h 0.0mm, Baro 1014.0h, Hum: 79%(3EB1TK-13)
EA1FPN 43.32.39N 005.42.17WIN73DM 30.365km 15°NNE18:55:34ZWindows:BlueDV 439.8750/439.8750 CC1
EA1AHA 43.32.74N 005.54.35WIN73BN 31.055km 344°NNW18:54:50ZWind 000°/000kn, Böen bis 000kn, Temp 11.67c, Regen 0.0mm, letzte 24h 0.0mm, seit 0h 0.0mm, Baro 1012.9h, Hum: 75%(3EA1AHA-13)
MMDVM MMDVM HS 433.5000/433.5000 CC1(2EA1AHA)
EA1AUM 43.32.75N 005.54.47WIN73BN 31.117km 344°NNW18:56:08ZMMDVM MMDVM HS Hat 432.1000/432.1000 CC1(3EA1AUM-1)
EB1EHT 43.32.47N 005.40.40WIN73DM 31.219km 20°NNE18:42:11ZMMDVM MMDVM HS Hat 433.5550/433.5550 CC2(3EB1EHT-1)
440 MMDVM Voice 433.55500MHz +0.0000MHz, APRS for DMRGateway(2EB1EHT-D)
LEEL 43.32.98N 005.41.71WIN73DN 31.581km 16°NNE19:00:04ZHelipuerto de El Musel: LEAS 051800Z VRB02KT CAVOK 11/08 Q1011 NOSIG=
EA1IEJ 43.32.33N 005.38.92WIN73EM 31.708km 23°NNE18:56:20ZMMDVM DMO 222.3400/222.3400 CC1(3EA1IEJ-11)
EA1BCU 43.32.88N 005.55.46WIN73AN 31.740km 342°NNW18:49:15ZAnt-QFH 144.800 MHz, Arduino-APRS/TLM(3EA1BCU-4)
EA1HJA 43.28.10N 005.30.45WIN73FL 32.007km 48°NE19:06:22Z IN73FL WX3IN1+ 2.0 - V=13.5V,TX TEMP=42.2C
EA1HJA@URE.ES(2EA1HJA-2)
EA1FHR 43.28.72N 005.26.41WIN73GL 36.922km 52°NE18:54:38ZMMDVM MMDVM HS Hat 439.1500/439.1500 CC1
EA1JAY 43.29.33N 005.26.78WIN73GL 37.254km 51°NE19:00:06Z434.525MHz Nodo TETRA DMO(3EA1JAY-4)
EA1JAY(2EA1JAY-2)
EA1HWD 43.28.96N 005.26.30WIN73GL 37.321km 52°NE18:54:54ZMMDVM MMDVM HS Hat 434.2500/434.2500 CC1
EA1JW 43.31.35N 005.28.83WIN73GM 37.760km 43°NE18:56:02ZMMDVM MMDVM HS Hat 436.5000/436.5000 CC1(3EA1JW-3)
EA1AXV 43.37.36N 005.47.23WIN73CO 38.518km N18:11:41Zop.maria isabel - Luanco /Asturias {UIV32}
LETN 43.20.05N 006.22.69WIN63TI 46.994km 278°W19:00:04ZAerodromo de La Curiscada (Tineo): LEAS 051800Z VRB02KT CAVOK 11/08 Q1011 NOSIG=
EC1KV 43.34.01N 006.16.01WIN63UN 49.445km 311°NW19:06:54Z VOLT.=13.7 V - TEMP.=??.? C(3EC1KV-1)

aprs.pl 5.0.011w DL3EL © 2006-2021 [8184993]